Pagrindinis puslapis
METAR-TAF:

METAR-TAF

Oro uostai :

Vnukovo oro uostas

Maskva-Βνούκοβο, Rusija

platuma: 55-39N, ilguma: 037-16E, Aukštis: 203 m

Dabartinis oras

Ataskaita buvo paskelbta 15 minutes, ne 03:00 UTC
Vėjas 10 kt iš Pietvakarių
Temperatūra 3°C
Drėgmė 75%
Slėgis 1010 hPa
Matomumas 10 km arba daugiau
nėra debesų žemiau 1500 m ir nėra kamuolinių lietaus debesų

METAR: UUWW 180300Z 22005MPS CAVOK 03/M01 Q1010 R24/190060 NOSIG

Laikas: 06:15 (03:15 UTC)

Prognozė

Ataskaita buvo paskelbta 1 valandą ir 19 minutes, ne 01:56 UTC
Prognozė galioja nuo 18 metu 03 UTC su 19 metu 03 UTC
Vėjas 14 kt iš Pietvakarių su gūsio iki 23 kt
Matomumas 10 km arba daugiau
Su prošvaistėmis ne aukštis 1500 ft
Laikinai
nuo 18 metu 15 UTC su 18 metu 24 UTC
Mažai debesys ne aukštis 800 ft
Išsisklaidę debesys ne aukštis 1500 ft, Liūtiniai kamuoliniai debesys.
lietus

TAF: UUWW 180156Z 1803/1903 23007G12MPS 9999 BKN015 TX06/1812Z TN02/1903Z TEMPO 1815/1824 -SHRA FEW008 SCT015CB

Orai ataskaitas ir orų prognozės (METAR, TAF).

turimą stotys yra geltonos ir raudonos taškus žemėlapyje.

Perkelti pele per norėdami pamatyti stoties vardą.

Tada spustelėkite, norėdami matyti oro stebėjimo ir prognozės.

Norėdami pakeisti žemėlapį: spustelėkite ant žalios mygtukų su juodo kryžiaus žemyn,; žalią mygtuką su brūkšneliu, jei norite nutolinti; arba žalių rodyklių gretimoms žemėlapius.


METAR-TAF: